sensor_id;sensor_type;location;lat;lon;timestamp;P1;durP1;ratioP1;P2;durP2;ratioP2
950;SDS011;462;48.758;9.256;2022-08-21T00:06:26;4.53;;;3.20;;
950;SDS011;462;48.758;9.256;2022-08-21T00:14:28;6.83;;;4.43;;
950;SDS011;462;48.758;9.256;2022-08-21T00:22:32;3.93;;;3.63;;
950;SDS011;462;48.758;9.256;2022-08-21T00:30:35;5.00;;;3.80;;
950;SDS011;462;48.758;9.256;2022-08-21T00:38:39;4.03;;;3.67;;
950;SDS011;462;48.758;9.256;2022-08-21T00:46:42;3.87;;;3.53;;
950;SDS011;462;48.758;9.256;2022-08-21T00:54:46;5.97;;;3.40;;
950;SDS011;462;48.758;9.256;2022-08-21T01:02:49;6.33;;;3.30;;
950;SDS011;462;48.758;9.256;2022-08-21T01:10:53;3.83;;;3.53;;
950;SDS011;462;48.758;9.256;2022-08-21T01:18:59;4.80;;;4.00;;
950;SDS011;462;48.758;9.256;2022-08-21T01:27:03;6.60;;;4.20;;
950;SDS011;462;48.758;9.256;2022-08-21T01:35:06;6.70;;;4.37;;
950;SDS011;462;48.758;9.256;2022-08-21T01:43:10;7.93;;;4.20;;
950;SDS011;462;48.758;9.256;2022-08-21T01:51:13;4.73;;;4.23;;
950;SDS011;462;48.758;9.256;2022-08-21T01:59:17;4.97;;;4.17;;
950;SDS011;462;48.758;9.256;2022-08-21T02:07:19;5.20;;;4.00;;
950;SDS011;462;48.758;9.256;2022-08-21T02:15:23;4.73;;;4.23;;
950;SDS011;462;48.758;9.256;2022-08-21T02:23:25;5.93;;;4.93;;
950;SDS011;462;48.758;9.256;2022-08-21T02:31:29;5.50;;;4.37;;
950;SDS011;462;48.758;9.256;2022-08-21T02:39:32;4.30;;;3.90;;
950;SDS011;462;48.758;9.256;2022-08-21T02:47:36;5.10;;;4.17;;
950;SDS011;462;48.758;9.256;2022-08-21T02:55:39;6.37;;;4.40;;
950;SDS011;462;48.758;9.256;2022-08-21T03:03:44;10.20;;;5.20;;
950;SDS011;462;48.758;9.256;2022-08-21T03:11:49;6.60;;;4.53;;
950;SDS011;462;48.758;9.256;2022-08-21T03:19:55;5.03;;;4.60;;
950;SDS011;462;48.758;9.256;2022-08-21T03:27:58;7.50;;;5.00;;
950;SDS011;462;48.758;9.256;2022-08-21T03:36:03;5.90;;;5.30;;
950;SDS011;462;48.758;9.256;2022-08-21T03:44:07;4.60;;;4.30;;
950;SDS011;462;48.758;9.256;2022-08-21T03:52:11;5.70;;;5.20;;
950;SDS011;462;48.758;9.256;2022-08-21T04:00:13;5.33;;;4.83;;
950;SDS011;462;48.758;9.256;2022-08-21T04:08:18;5.60;;;5.10;;
950;SDS011;462;48.758;9.256;2022-08-21T04:16:21;6.90;;;5.93;;
950;SDS011;462;48.758;9.256;2022-08-21T04:24:25;5.47;;;4.40;;
950;SDS011;462;48.758;9.256;2022-08-21T04:32:27;7.03;;;5.77;;
950;SDS011;462;48.758;9.256;2022-08-21T04:40:31;5.50;;;4.97;;
950;SDS011;462;48.758;9.256;2022-08-21T04:48:34;5.50;;;5.00;;
950;SDS011;462;48.758;9.256;2022-08-21T04:56:39;6.03;;;4.97;;
950;SDS011;462;48.758;9.256;2022-08-21T05:04:45;5.37;;;4.87;;
950;SDS011;462;48.758;9.256;2022-08-21T05:12:51;6.37;;;5.07;;
950;SDS011;462;48.758;9.256;2022-08-21T05:20:53;7.03;;;5.30;;
950;SDS011;462;48.758;9.256;2022-08-21T05:28:58;5.30;;;4.60;;
950;SDS011;462;48.758;9.256;2022-08-21T05:37:01;6.87;;;4.87;;
950;SDS011;462;48.758;9.256;2022-08-21T05:45:05;6.97;;;5.30;;
950;SDS011;462;48.758;9.256;2022-08-21T05:53:09;5.80;;;5.30;;
950;SDS011;462;48.758;9.256;2022-08-21T06:01:13;5.67;;;5.27;;
950;SDS011;462;48.758;9.256;2022-08-21T06:09:16;8.43;;;5.17;;
950;SDS011;462;48.758;9.256;2022-08-21T06:17:19;6.43;;;5.83;;
950;SDS011;462;48.758;9.256;2022-08-21T06:25:23;6.60;;;5.80;;
950;SDS011;462;48.758;9.256;2022-08-21T06:33:27;5.97;;;5.47;;
950;SDS011;462;48.758;9.256;2022-08-21T06:41:29;6.40;;;5.30;;
950;SDS011;462;48.758;9.256;2022-08-21T06:49:33;5.80;;;5.20;;
950;SDS011;462;48.758;9.256;2022-08-21T06:57:36;4.90;;;4.40;;
950;SDS011;462;48.758;9.256;2022-08-21T07:05:39;6.43;;;4.90;;
950;SDS011;462;48.758;9.256;2022-08-21T07:13:42;5.30;;;4.90;;
950;SDS011;462;48.758;9.256;2022-08-21T07:21:46;6.23;;;4.57;;
950;SDS011;462;48.758;9.256;2022-08-21T07:29:48;9.73;;;4.50;;
950;SDS011;462;48.758;9.256;2022-08-21T07:37:52;4.90;;;4.47;;
950;SDS011;462;48.758;9.256;2022-08-21T07:45:55;6.87;;;4.13;;
950;SDS011;462;48.758;9.256;2022-08-21T07:53:59;3.67;;;3.37;;
950;SDS011;462;48.758;9.256;2022-08-21T08:02:02;5.77;;;4.03;;
950;SDS011;462;48.758;9.256;2022-08-21T08:10:06;6.27;;;4.53;;
950;SDS011;462;48.758;9.256;2022-08-21T08:18:10;5.80;;;4.83;;
950;SDS011;462;48.758;9.256;2022-08-21T08:26:15;5.20;;;3.90;;
950;SDS011;462;48.758;9.256;2022-08-21T08:34:17;6.27;;;4.83;;
950;SDS011;462;48.758;9.256;2022-08-21T08:42:23;4.87;;;4.30;;
950;SDS011;462;48.758;9.256;2022-08-21T08:50:45;5.33;;;4.63;;
950;SDS011;462;48.758;9.256;2022-08-21T08:58:51;7.70;;;4.60;;
950;SDS011;462;48.758;9.256;2022-08-21T09:06:57;5.87;;;4.40;;
950;SDS011;462;48.758;9.256;2022-08-21T09:15:09;7.10;;;4.70;;
950;SDS011;462;48.758;9.256;2022-08-21T09:23:21;6.10;;;4.43;;
950;SDS011;462;48.758;9.256;2022-08-21T09:31:30;7.83;;;4.87;;
950;SDS011;462;48.758;9.256;2022-08-21T09:39:37;5.40;;;3.77;;
950;SDS011;462;48.758;9.256;2022-08-21T09:47:43;6.93;;;4.30;;
950;SDS011;462;48.758;9.256;2022-08-21T09:55:47;5.47;;;3.67;;
950;SDS011;462;48.758;9.256;2022-08-21T10:04:11;7.33;;;3.70;;
950;SDS011;462;48.758;9.256;2022-08-21T10:12:15;6.07;;;3.97;;
950;SDS011;462;48.758;9.256;2022-08-21T10:20:25;4.90;;;3.90;;
950;SDS011;462;48.758;9.256;2022-08-21T10:28:34;4.70;;;3.63;;
950;SDS011;462;48.758;9.256;2022-08-21T10:36:42;6.30;;;3.70;;
950;SDS011;462;48.758;9.256;2022-08-21T10:44:49;6.80;;;3.23;;
950;SDS011;462;48.758;9.256;2022-08-21T10:53:03;6.00;;;3.40;;
950;SDS011;462;48.758;9.256;2022-08-21T11:01:15;4.00;;;3.70;;
950;SDS011;462;48.758;9.256;2022-08-21T11:09:24;6.10;;;3.90;;
950;SDS011;462;48.758;9.256;2022-08-21T11:17:30;4.13;;;3.43;;
950;SDS011;462;48.758;9.256;2022-08-21T11:25:36;6.27;;;3.57;;
950;SDS011;462;48.758;9.256;2022-08-21T11:33:54;5.37;;;3.97;;
950;SDS011;462;48.758;9.256;2022-08-21T11:42:08;5.10;;;4.00;;
950;SDS011;462;48.758;9.256;2022-08-21T11:50:18;3.70;;;3.40;;
950;SDS011;462;48.758;9.256;2022-08-21T11:58:24;4.93;;;2.90;;
950;SDS011;462;48.758;9.256;2022-08-21T12:06:30;5.00;;;3.70;;
950;SDS011;462;48.758;9.256;2022-08-21T12:14:38;7.03;;;4.13;;
950;SDS011;462;48.758;9.256;2022-08-21T12:22:47;3.70;;;2.97;;
950;SDS011;462;48.758;9.256;2022-08-21T12:30:54;4.13;;;3.40;;
950;SDS011;462;48.758;9.256;2022-08-21T12:38:57;3.43;;;3.13;;
950;SDS011;462;48.758;9.256;2022-08-21T12:47:05;6.00;;;3.83;;
950;SDS011;462;48.758;9.256;2022-08-21T12:55:15;4.27;;;3.10;;
950;SDS011;462;48.758;9.256;2022-08-21T13:03:27;3.83;;;2.93;;
950;SDS011;462;48.758;9.256;2022-08-21T13:11:31;4.97;;;3.73;;
950;SDS011;462;48.758;9.256;2022-08-21T13:19:35;4.67;;;4.13;;
950;SDS011;462;48.758;9.256;2022-08-21T13:27:38;4.43;;;3.03;;
950;SDS011;462;48.758;9.256;2022-08-21T13:35:48;7.40;;;3.80;;
950;SDS011;462;48.758;9.256;2022-08-21T13:43:56;3.93;;;3.13;;
950;SDS011;462;48.758;9.256;2022-08-21T13:52:01;3.80;;;3.33;;
950;SDS011;462;48.758;9.256;2022-08-21T14:00:15;6.10;;;3.50;;
950;SDS011;462;48.758;9.256;2022-08-21T14:08:22;4.03;;;3.20;;
950;SDS011;462;48.758;9.256;2022-08-21T14:16:28;4.77;;;3.27;;
950;SDS011;462;48.758;9.256;2022-08-21T14:24:43;3.50;;;3.20;;
950;SDS011;462;48.758;9.256;2022-08-21T14:32:46;3.67;;;2.63;;
950;SDS011;462;48.758;9.256;2022-08-21T14:40:51;4.03;;;3.63;;
950;SDS011;462;48.758;9.256;2022-08-21T14:48:55;6.50;;;3.87;;
950;SDS011;462;48.758;9.256;2022-08-21T14:57:00;5.20;;;3.13;;
950;SDS011;462;48.758;9.256;2022-08-21T15:05:04;5.63;;;3.13;;
950;SDS011;462;48.758;9.256;2022-08-21T15:13:08;3.50;;;3.07;;
950;SDS011;462;48.758;9.256;2022-08-21T15:21:11;6.30;;;5.03;;
950;SDS011;462;48.758;9.256;2022-08-21T15:29:14;4.63;;;3.20;;
950;SDS011;462;48.758;9.256;2022-08-21T15:37:17;5.67;;;4.03;;
950;SDS011;462;48.758;9.256;2022-08-21T15:45:21;3.60;;;3.30;;
950;SDS011;462;48.758;9.256;2022-08-21T15:53:23;4.17;;;3.20;;
950;SDS011;462;48.758;9.256;2022-08-21T16:01:27;4.90;;;3.43;;
950;SDS011;462;48.758;9.256;2022-08-21T16:09:30;9.13;;;3.73;;
950;SDS011;462;48.758;9.256;2022-08-21T16:17:35;4.40;;;3.53;;
950;SDS011;462;48.758;9.256;2022-08-21T16:25:38;4.20;;;3.80;;
950;SDS011;462;48.758;9.256;2022-08-21T16:33:43;4.53;;;3.00;;
950;SDS011;462;48.758;9.256;2022-08-21T16:41:49;5.70;;;3.23;;
950;SDS011;462;48.758;9.256;2022-08-21T16:49:53;4.73;;;3.77;;
950;SDS011;462;48.758;9.256;2022-08-21T16:57:56;4.20;;;3.60;;
950;SDS011;462;48.758;9.256;2022-08-21T17:06:01;4.07;;;3.33;;
950;SDS011;462;48.758;9.256;2022-08-21T17:14:04;4.73;;;3.93;;
950;SDS011;462;48.758;9.256;2022-08-21T17:22:10;4.70;;;3.00;;
950;SDS011;462;48.758;9.256;2022-08-21T17:30:13;5.90;;;5.30;;
950;SDS011;462;48.758;9.256;2022-08-21T17:38:17;5.80;;;5.27;;
950;SDS011;462;48.758;9.256;2022-08-21T17:46:21;4.77;;;3.90;;
950;SDS011;462;48.758;9.256;2022-08-21T17:54:29;4.20;;;3.77;;
950;SDS011;462;48.758;9.256;2022-08-21T18:02:32;5.40;;;4.73;;
950;SDS011;462;48.758;9.256;2022-08-21T18:10:36;5.07;;;4.50;;
950;SDS011;462;48.758;9.256;2022-08-21T18:18:41;5.17;;;4.67;;
950;SDS011;462;48.758;9.256;2022-08-21T18:26:45;5.23;;;3.53;;
950;SDS011;462;48.758;9.256;2022-08-21T18:34:48;4.90;;;3.60;;
950;SDS011;462;48.758;9.256;2022-08-21T18:42:52;7.93;;;4.03;;
950;SDS011;462;48.758;9.256;2022-08-21T18:50:54;6.13;;;3.70;;
950;SDS011;462;48.758;9.256;2022-08-21T18:58:58;5.73;;;3.83;;
950;SDS011;462;48.758;9.256;2022-08-21T19:07:01;6.10;;;4.30;;
950;SDS011;462;48.758;9.256;2022-08-21T19:15:05;5.43;;;4.57;;
950;SDS011;462;48.758;9.256;2022-08-21T19:23:10;4.70;;;4.20;;
950;SDS011;462;48.758;9.256;2022-08-21T19:31:16;5.30;;;4.00;;
950;SDS011;462;48.758;9.256;2022-08-21T19:39:20;6.20;;;4.50;;
950;SDS011;462;48.758;9.256;2022-08-21T19:47:24;7.53;;;4.30;;
950;SDS011;462;48.758;9.256;2022-08-21T19:55:27;5.10;;;4.33;;
950;SDS011;462;48.758;9.256;2022-08-21T20:03:31;5.47;;;4.37;;
950;SDS011;462;48.758;9.256;2022-08-21T20:11:35;8.23;;;4.60;;
950;SDS011;462;48.758;9.256;2022-08-21T20:19:40;6.53;;;4.07;;
950;SDS011;462;48.758;9.256;2022-08-21T20:27:43;4.70;;;4.30;;
950;SDS011;462;48.758;9.256;2022-08-21T20:35:47;7.90;;;4.00;;
950;SDS011;462;48.758;9.256;2022-08-21T20:43:51;5.57;;;4.20;;
950;SDS011;462;48.758;9.256;2022-08-21T20:51:55;3.80;;;3.40;;
950;SDS011;462;48.758;9.256;2022-08-21T20:59:59;4.47;;;4.00;;
950;SDS011;462;48.758;9.256;2022-08-21T21:08:07;6.80;;;4.43;;
950;SDS011;462;48.758;9.256;2022-08-21T21:16:22;7.10;;;4.50;;
950;SDS011;462;48.758;9.256;2022-08-21T21:24:30;5.30;;;3.43;;
950;SDS011;462;48.758;9.256;2022-08-21T21:32:36;6.47;;;4.87;;
950;SDS011;462;48.758;9.256;2022-08-21T21:40:44;6.43;;;5.00;;
950;SDS011;462;48.758;9.256;2022-08-21T21:48:58;6.30;;;4.70;;
950;SDS011;462;48.758;9.256;2022-08-21T21:57:13;6.50;;;4.83;;
950;SDS011;462;48.758;9.256;2022-08-21T22:05:20;12.10;;;5.63;;
950;SDS011;462;48.758;9.256;2022-08-21T22:13:38;5.50;;;4.53;;
950;SDS011;462;48.758;9.256;2022-08-21T22:21:48;6.10;;;4.90;;
950;SDS011;462;48.758;9.256;2022-08-21T22:29:55;7.03;;;5.00;;
950;SDS011;462;48.758;9.256;2022-08-21T22:37:59;4.80;;;4.13;;
950;SDS011;462;48.758;9.256;2022-08-21T22:46:04;8.73;;;5.23;;
950;SDS011;462;48.758;9.256;2022-08-21T22:54:09;6.57;;;4.80;;
950;SDS011;462;48.758;9.256;2022-08-21T23:02:21;6.13;;;5.10;;
950;SDS011;462;48.758;9.256;2022-08-21T23:10:37;4.40;;;4.10;;
950;SDS011;462;48.758;9.256;2022-08-21T23:18:46;6.10;;;4.90;;
950;SDS011;462;48.758;9.256;2022-08-21T23:26:54;4.97;;;4.37;;
950;SDS011;462;48.758;9.256;2022-08-21T23:35:06;5.63;;;5.23;;
950;SDS011;462;48.758;9.256;2022-08-21T23:43:24;6.53;;;5.53;;
950;SDS011;462;48.758;9.256;2022-08-21T23:51:39;6.17;;;5.30;;
950;SDS011;462;48.758;9.256;2022-08-21T23:59:52;7.57;;;6.10;;
